createdAt,value
2023-03-17T00:00:52.931Z,1006.7
2023-03-17T00:01:52.934Z,1006.7
2023-03-17T00:02:52.990Z,1006.7
2023-03-17T00:03:52.995Z,1006.7
2023-03-17T00:04:52.929Z,1006.7
2023-03-17T00:05:52.959Z,1006.8
2023-03-17T00:06:53.201Z,1006.8
2023-03-17T00:07:53.029Z,1006.9
2023-03-17T00:08:52.935Z,1006.9
2023-03-17T00:09:52.947Z,1006.9
2023-03-17T00:10:52.938Z,1006.9
2023-03-17T00:11:52.940Z,1006.9
2023-03-17T00:12:52.946Z,1006.9
2023-03-17T00:13:52.939Z,1007
2023-03-17T00:14:52.944Z,1007
2023-03-17T00:15:53.059Z,1007
2023-03-17T00:16:53.050Z,1006.9
2023-03-17T00:17:52.936Z,1007
2023-03-17T00:18:52.941Z,1007
2023-03-17T00:19:52.945Z,1007
2023-03-17T00:20:52.935Z,1007
2023-03-17T00:21:52.942Z,1006.9
2023-03-17T00:22:53.036Z,1006.9
2023-03-17T00:23:52.935Z,1007
2023-03-17T00:24:52.945Z,1007
2023-03-17T00:25:52.986Z,1007
2023-03-17T00:26:52.951Z,1006.9
2023-03-17T00:27:52.938Z,1006.9
2023-03-17T00:28:53.011Z,1006.9
2023-03-17T00:29:52.947Z,1007
2023-03-17T00:30:53.016Z,1007
2023-03-17T00:31:52.975Z,1006.9
2023-03-17T00:32:52.995Z,1006.9
2023-03-17T00:33:52.949Z,1006.9
2023-03-17T00:34:52.941Z,1006.9
2023-03-17T00:35:52.973Z,1006.9
2023-03-17T00:36:52.953Z,1006.9
2023-03-17T00:37:52.948Z,1006.9
2023-03-17T00:38:52.947Z,1006.9
2023-03-17T00:40:52.940Z,1006.9
2023-03-17T00:41:53.080Z,1006.9
2023-03-17T00:44:52.945Z,1006.9
2023-03-17T00:47:52.941Z,1006.9
2023-03-17T00:49:52.954Z,1006.9
2023-03-17T00:50:52.937Z,1006.9
2023-03-17T00:51:53.016Z,1006.8
2023-03-17T00:52:52.935Z,1006.8
2023-03-17T00:53:52.940Z,1006.8
2023-03-17T00:54:52.942Z,1006.7
2023-03-17T00:55:52.939Z,1006.7
2023-03-17T00:56:52.938Z,1006.6
2023-03-17T00:57:52.939Z,1006.7
2023-03-17T00:58:52.939Z,1006.6
2023-03-17T00:59:52.947Z,1006.6
2023-03-17T01:00:53.030Z,1006.5
2023-03-17T01:01:53.090Z,1006.5
2023-03-17T01:02:52.973Z,1006.5
2023-03-17T01:03:52.976Z,1006.5
2023-03-17T01:05:05.476Z,1006.5
2023-03-17T01:05:52.949Z,1006.5
2023-03-17T01:06:52.948Z,1006.5
2023-03-17T01:07:53.046Z,1006.4
2023-03-17T01:08:52.957Z,1006.4
2023-03-17T01:09:52.948Z,1006.4
2023-03-17T01:10:52.955Z,1006.4
2023-03-17T01:11:52.944Z,1006.4
2023-03-17T01:12:52.949Z,1006.4
2023-03-17T01:13:52.944Z,1006.4
2023-03-17T01:14:52.974Z,1006.4
2023-03-17T01:15:53.175Z,1006.4
2023-03-17T01:16:52.950Z,1006.4
2023-03-17T01:17:52.948Z,1006.3
2023-03-17T01:18:53.180Z,1006.3
2023-03-17T01:19:52.953Z,1006.3
2023-03-17T01:20:52.960Z,1006.3
2023-03-17T01:21:52.965Z,1006.3
2023-03-17T01:22:52.951Z,1006.3
2023-03-17T01:23:52.968Z,1006.3
2023-03-17T01:24:52.943Z,1006.3
2023-03-17T01:25:52.986Z,1006.3
2023-03-17T01:26:52.958Z,1006.3
2023-03-17T01:27:52.959Z,1006.3
2023-03-17T01:28:52.948Z,1006.3
2023-03-17T01:29:52.969Z,1006.3
2023-03-17T01:30:52.953Z,1006.2
2023-03-17T01:31:53.106Z,1006.2
2023-03-17T01:32:53.107Z,1006.2
2023-03-17T01:33:52.991Z,1006.3
2023-03-17T01:35:53.045Z,1006.3
2023-03-17T01:36:52.990Z,1006.2
2023-03-17T01:37:52.961Z,1006.2
2023-03-17T01:38:52.958Z,1006.2
2023-03-17T01:39:52.963Z,1006.1
2023-03-17T01:40:52.952Z,1006.1
2023-03-17T01:41:52.956Z,1006
2023-03-17T01:42:52.963Z,1006.1
2023-03-17T01:43:52.958Z,1006.1
2023-03-17T01:44:52.958Z,1006
2023-03-17T01:45:53.134Z,1006
2023-03-17T01:46:52.957Z,1006
2023-03-17T01:47:52.957Z,1005.9
2023-03-17T01:48:52.981Z,1005.9
2023-03-17T01:49:52.961Z,1005.9
2023-03-17T01:50:52.954Z,1005.8
2023-03-17T01:51:52.999Z,1005.9
2023-03-17T01:52:52.965Z,1005.8
2023-03-17T01:53:52.984Z,1005.8
2023-03-17T01:54:52.972Z,1005.8
2023-03-17T01:55:52.971Z,1005.8
2023-03-17T01:56:52.965Z,1005.8
2023-03-17T01:57:52.961Z,1005.8
2023-03-17T01:58:52.973Z,1005.8
2023-03-17T01:59:52.964Z,1005.8
2023-03-17T02:00:53.029Z,1005.8
2023-03-17T02:01:52.973Z,1005.8
2023-03-17T02:02:52.964Z,1005.8
2023-03-17T02:03:53.022Z,1005.8
2023-03-17T02:04:53.179Z,1005.8
2023-03-17T02:05:53.001Z,1005.8
2023-03-17T02:06:58.485Z,1005.8
2023-03-17T02:07:52.995Z,1005.8
2023-03-17T02:08:52.964Z,1005.8
2023-03-17T02:09:52.977Z,1005.8
2023-03-17T02:10:52.971Z,1005.8
2023-03-17T02:11:52.968Z,1005.7
2023-03-17T02:12:52.968Z,1005.7
2023-03-17T02:13:52.972Z,1005.7
2023-03-17T02:14:52.970Z,1005.7
2023-03-17T02:15:52.998Z,1005.7
2023-03-17T02:16:53.088Z,1005.7
2023-03-17T02:17:52.974Z,1005.8
2023-03-17T02:18:53.322Z,1005.8
2023-03-17T02:19:52.978Z,1005.8
2023-03-17T02:20:52.966Z,1005.8
2023-03-17T02:21:52.976Z,1005.7
2023-03-17T02:22:52.969Z,1005.7
2023-03-17T02:23:52.982Z,1005.8
2023-03-17T02:24:52.974Z,1005.8
2023-03-17T02:25:52.967Z,1005.8
2023-03-17T02:26:52.963Z,1005.9
2023-03-17T02:27:52.977Z,1005.8
2023-03-17T02:28:52.968Z,1005.8
2023-03-17T02:29:52.968Z,1005.8
2023-03-17T02:30:53.001Z,1005.8
2023-03-17T02:31:52.980Z,1005.8
2023-03-17T02:32:53.046Z,1005.8
2023-03-17T02:33:52.978Z,1005.8
2023-03-17T02:34:53.007Z,1005.7
2023-03-17T02:35:53.090Z,1005.7
2023-03-17T02:36:53.023Z,1005.7
2023-03-17T02:37:52.979Z,1005.7
2023-03-17T02:38:53.002Z,1005.7
2023-03-17T02:39:52.994Z,1005.7
2023-03-17T02:40:52.970Z,1005.7
2023-03-17T02:41:52.982Z,1005.7
2023-03-17T02:42:52.988Z,1005.7
2023-03-17T02:43:52.977Z,1005.7
2023-03-17T02:44:52.977Z,1005.7
2023-03-17T02:45:53.066Z,1005.7
2023-03-17T02:46:52.993Z,1005.7
2023-03-17T02:47:52.980Z,1005.7
2023-03-17T02:48:52.987Z,1005.7
2023-03-17T02:49:52.987Z,1005.7
2023-03-17T02:50:52.989Z,1005.7
2023-03-17T02:51:52.987Z,1005.7
2023-03-17T02:52:52.971Z,1005.8
2023-03-17T02:53:52.989Z,1005.8
2023-03-17T02:54:52.996Z,1005.8
2023-03-17T02:55:52.976Z,1005.8
2023-03-17T02:56:52.983Z,1005.8
2023-03-17T02:57:53.021Z,1005.8
2023-03-17T02:58:53.001Z,1005.8
2023-03-17T02:59:52.978Z,1005.7
2023-03-17T03:00:52.989Z,1005.8
2023-03-17T03:01:52.994Z,1005.8
2023-03-17T03:02:53.163Z,1005.7
2023-03-17T03:03:52.991Z,1005.7
2023-03-17T03:04:52.999Z,1005.7
2023-03-17T03:05:53.023Z,1005.7
2023-03-17T03:06:52.992Z,1005.7
2023-03-17T03:08:52.993Z,1005.7
2023-03-17T03:09:52.992Z,1005.7
2023-03-17T03:10:52.994Z,1005.7
2023-03-17T03:11:52.985Z,1005.7
2023-03-17T03:12:52.992Z,1005.7
2023-03-17T03:13:53.014Z,1005.7
2023-03-17T03:14:53.070Z,1005.8
2023-03-17T03:15:53.041Z,1005.7
2023-03-17T03:16:53.000Z,1005.8
2023-03-17T03:17:52.996Z,1005.8
2023-03-17T03:18:52.994Z,1005.8
2023-03-17T03:19:53.000Z,1005.8
2023-03-17T03:20:52.986Z,1005.8
2023-03-17T03:21:53.027Z,1005.8
2023-03-17T03:22:53.005Z,1005.8
2023-03-17T03:23:52.994Z,1005.7
2023-03-17T03:24:53.000Z,1005.7
2023-03-17T03:25:52.992Z,1005.7
2023-03-17T03:26:52.993Z,1005.7
2023-03-17T03:27:53.001Z,1005.7
2023-03-17T03:29:52.991Z,1005.8
2023-03-17T03:30:53.044Z,1005.7
2023-03-17T03:31:52.994Z,1005.7
2023-03-17T03:32:53.060Z,1005.8
2023-03-17T03:33:53.008Z,1005.7
2023-03-17T03:34:53.003Z,1005.8
2023-03-17T03:35:53.062Z,1005.7
2023-03-17T03:36:53.021Z,1005.7
2023-03-17T03:37:53.002Z,1005.7
2023-03-17T03:38:53.012Z,1005.7
2023-03-17T03:39:53.043Z,1005.7
2023-03-17T03:40:53.001Z,1005.7
2023-03-17T03:41:52.993Z,1005.7
2023-03-17T03:42:53.123Z,1005.8
2023-03-17T03:43:53.011Z,1005.7
2023-03-17T03:44:53.010Z,1005.7
2023-03-17T03:45:52.997Z,1005.7
2023-03-17T03:46:53.078Z,1005.7
2023-03-17T03:47:52.994Z,1005.7
2023-03-17T03:48:52.995Z,1005.6
2023-03-17T03:50:53.004Z,1005.6
2023-03-17T03:51:53.000Z,1005.6
2023-03-17T03:52:52.989Z,1005.5
2023-03-17T03:53:53.001Z,1005.6
2023-03-17T03:54:52.998Z,1005.6
2023-03-17T03:55:53.004Z,1005.6
2023-03-17T03:56:52.994Z,1005.6
2023-03-17T03:57:53.017Z,1005.6
2023-03-17T03:58:52.996Z,1005.6
2023-03-17T03:59:53.014Z,1005.6
2023-03-17T04:00:53.016Z,1005.5
2023-03-17T04:01:52.997Z,1005.5
2023-03-17T04:02:53.091Z,1005.6
2023-03-17T04:03:53.004Z,1005.6
2023-03-17T04:04:53.023Z,1005.6
2023-03-17T04:05:53.009Z,1005.7
2023-03-17T04:06:52.994Z,1005.7
2023-03-17T04:07:53.057Z,1005.8
2023-03-17T04:08:53.013Z,1005.8
2023-03-17T04:09:53.005Z,1005.7
2023-03-17T04:10:53.015Z,1005.7
2023-03-17T04:11:53.017Z,1005.7
2023-03-17T04:12:53.008Z,1005.6
2023-03-17T04:13:52.998Z,1005.6
2023-03-17T04:14:52.999Z,1005.6
2023-03-17T04:16:53.002Z,1005.6
2023-03-17T04:17:53.000Z,1005.6
2023-03-17T04:18:53.050Z,1005.6
2023-03-17T04:19:53.003Z,1005.7
2023-03-17T04:20:53.008Z,1005.6
2023-03-17T04:21:54.786Z,1005.6
2023-03-17T04:22:53.016Z,1005.7
2023-03-17T04:23:53.013Z,1005.7
2023-03-17T04:24:53.006Z,1005.7
2023-03-17T04:26:53.002Z,1005.6
2023-03-17T04:27:53.007Z,1005.6
2023-03-17T04:28:53.005Z,1005.6
2023-03-17T04:29:53.005Z,1005.6
2023-03-17T04:30:53.030Z,1005.6
2023-03-17T04:31:53.096Z,1005.6
2023-03-17T04:32:53.085Z,1005.7
2023-03-17T04:33:53.008Z,1005.7
2023-03-17T04:34:53.006Z,1005.6
2023-03-17T04:35:53.037Z,1005.6
2023-03-17T04:36:53.007Z,1005.6
2023-03-17T04:37:53.006Z,1005.7
2023-03-17T04:38:53.050Z,1005.6
2023-03-17T04:39:53.008Z,1005.6
2023-03-17T04:40:53.010Z,1005.6
2023-03-17T04:41:53.013Z,1005.6
2023-03-17T04:42:53.014Z,1005.6
2023-03-17T04:43:53.008Z,1005.6
2023-03-17T04:44:53.011Z,1005.6
2023-03-17T04:46:53.003Z,1005.6
2023-03-17T04:47:53.012Z,1005.6
2023-03-17T04:48:53.011Z,1005.6
2023-03-17T04:49:53.012Z,1005.6
2023-03-17T04:50:53.011Z,1005.7
2023-03-17T04:51:53.018Z,1005.6
2023-03-17T04:52:53.019Z,1005.6
2023-03-17T04:53:53.013Z,1005.7
2023-03-17T04:54:53.018Z,1005.7
2023-03-17T04:55:53.016Z,1005.7
2023-03-17T04:56:53.017Z,1005.7
2023-03-17T04:57:53.014Z,1005.7
2023-03-17T04:58:53.025Z,1005.7
2023-03-17T04:59:53.031Z,1005.7
2023-03-17T05:00:53.090Z,1005.7
2023-03-17T05:01:53.070Z,1005.7
2023-03-17T05:02:53.026Z,1005.7
2023-03-17T05:03:53.030Z,1005.7
2023-03-17T05:04:53.010Z,1005.6
2023-03-17T05:05:53.021Z,1005.6
2023-03-17T05:06:53.016Z,1005.6
2023-03-17T05:07:53.086Z,1005.6
2023-03-17T05:08:53.028Z,1005.6
2023-03-17T05:09:53.041Z,1005.6
2023-03-17T05:10:53.005Z,1005.5
2023-03-17T05:11:53.018Z,1005.5
2023-03-17T05:12:53.016Z,1005.6
2023-03-17T05:13:53.016Z,1005.5
2023-03-17T05:14:53.014Z,1005.5
2023-03-17T05:15:53.019Z,1005.5
2023-03-17T05:16:53.098Z,1005.5
2023-03-17T05:17:53.020Z,1005.6
2023-03-17T05:18:53.021Z,1005.6
2023-03-17T05:19:53.046Z,1005.6
2023-03-17T05:20:53.033Z,1005.6
2023-03-17T05:21:53.014Z,1005.7
2023-03-17T05:23:54.958Z,1005.6
2023-03-17T05:24:53.395Z,1005.7
2023-03-17T05:25:53.017Z,1005.7
2023-03-17T05:26:53.051Z,1005.7
2023-03-17T05:27:53.029Z,1005.7
2023-03-17T05:28:53.028Z,1005.7
2023-03-17T05:29:53.015Z,1005.7
2023-03-17T05:30:53.139Z,1005.7
2023-03-17T05:31:53.023Z,1005.7
2023-03-17T05:32:53.033Z,1005.6
2023-03-17T05:33:53.026Z,1005.6
2023-03-17T05:34:53.033Z,1005.6
2023-03-17T05:35:53.027Z,1005.7
2023-03-17T05:36:53.018Z,1005.7
2023-03-17T05:37:53.021Z,1005.7
2023-03-17T05:38:53.026Z,1005.7
2023-03-17T05:39:53.013Z,1005.7
2023-03-17T05:40:53.048Z,1005.7
2023-03-17T05:41:53.024Z,1005.7
2023-03-17T05:42:53.016Z,1005.8
2023-03-17T05:44:53.025Z,1005.8
2023-03-17T05:45:53.071Z,1005.8
2023-03-17T05:46:53.015Z,1005.8
2023-03-17T05:47:53.016Z,1005.7
2023-03-17T05:48:53.038Z,1005.8
2023-03-17T05:49:53.021Z,1005.8
2023-03-17T05:50:53.081Z,1005.7
2023-03-17T05:51:53.028Z,1005.8
2023-03-17T05:52:53.025Z,1005.7
2023-03-17T05:53:53.026Z,1005.8
2023-03-17T05:54:53.023Z,1005.8
2023-03-17T05:55:53.046Z,1005.8
2023-03-17T05:56:53.024Z,1005.8
2023-03-17T05:57:53.038Z,1005.8
2023-03-17T05:58:53.033Z,1005.7
2023-03-17T05:59:53.029Z,1005.7
2023-03-17T06:00:53.031Z,1005.7
2023-03-17T06:01:53.043Z,1005.7
2023-03-17T06:02:53.026Z,1005.7
2023-03-17T06:04:53.053Z,1005.7
2023-03-17T06:05:53.020Z,1005.7
2023-03-17T06:06:53.037Z,1005.6
2023-03-17T06:07:56.378Z,1005.6
2023-03-17T06:08:53.076Z,1005.5
2023-03-17T06:09:53.024Z,1005.5
2023-03-17T06:10:53.028Z,1005.5
2023-03-17T06:11:53.060Z,1005.5
2023-03-17T06:12:53.059Z,1005.5
2023-03-17T06:13:53.034Z,1005.5
2023-03-17T06:14:53.034Z,1005.5
2023-03-17T06:15:53.177Z,1005.6
2023-03-17T06:16:53.038Z,1005.6
2023-03-17T06:17:53.054Z,1005.6
2023-03-17T06:18:53.043Z,1005.6
2023-03-17T06:19:53.043Z,1005.6
2023-03-17T06:20:53.054Z,1005.6
2023-03-17T06:21:53.035Z,1005.6
2023-03-17T06:23:03.927Z,1005.6
2023-03-17T06:23:53.039Z,1005.6
2023-03-17T06:24:53.471Z,1005.6
2023-03-17T06:25:53.049Z,1005.6
2023-03-17T06:26:53.032Z,1005.5
2023-03-17T06:27:53.045Z,1005.5
2023-03-17T06:28:53.033Z,1005.5
2023-03-17T06:29:53.059Z,1005.5
2023-03-17T06:30:53.044Z,1005.5
2023-03-17T06:31:53.036Z,1005.5
2023-03-17T06:32:53.146Z,1005.4
2023-03-17T06:33:53.050Z,1005.5
2023-03-17T06:34:53.039Z,1005.4
2023-03-17T06:35:53.137Z,1005.4
2023-03-17T06:36:53.038Z,1005.4
2023-03-17T06:37:53.037Z,1005.4
2023-03-17T06:38:53.045Z,1005.4
2023-03-17T06:39:53.046Z,1005.4
2023-03-17T06:40:53.051Z,1005.4
2023-03-17T06:41:53.040Z,1005.5
2023-03-17T06:42:53.085Z,1005.5
2023-03-17T06:43:53.040Z,1005.5
2023-03-17T06:44:53.050Z,1005.5
2023-03-17T06:45:53.051Z,1005.6
2023-03-17T06:46:53.197Z,1005.5
2023-03-17T06:47:53.049Z,1005.5
2023-03-17T06:48:53.056Z,1005.5
2023-03-17T06:49:53.093Z,1005.6
2023-03-17T06:50:53.194Z,1005.5
2023-03-17T06:51:53.044Z,1005.5
2023-03-17T06:52:53.042Z,1005.5
2023-03-17T06:53:53.113Z,1005.5
2023-03-17T06:54:53.042Z,1005.5
2023-03-17T06:55:53.037Z,1005.6
2023-03-17T06:56:53.042Z,1005.6
2023-03-17T06:57:53.048Z,1005.6
2023-03-17T06:58:53.045Z,1005.6
2023-03-17T06:59:53.039Z,1005.5
2023-03-17T07:00:53.040Z,1005.5
2023-03-17T07:01:53.064Z,1005.5
2023-03-17T07:02:53.065Z,1005.6
2023-03-17T07:03:53.046Z,1005.5
2023-03-17T07:04:53.151Z,1005.5
2023-03-17T07:05:53.050Z,1005.5
2023-03-17T07:06:53.043Z,1005.5
2023-03-17T07:07:53.063Z,1005.5
2023-03-17T07:08:53.055Z,1005.5
2023-03-17T07:09:53.045Z,1005.5
2023-03-17T07:10:53.052Z,1005.6
2023-03-17T07:11:53.041Z,1005.6
2023-03-17T07:12:53.051Z,1005.6
2023-03-17T07:13:53.069Z,1005.6
2023-03-17T07:14:53.045Z,1005.6
2023-03-17T07:15:55.290Z,1005.6
2023-03-17T07:16:53.059Z,1005.6
2023-03-17T07:17:53.076Z,1005.6
2023-03-17T07:18:53.045Z,1005.6
2023-03-17T07:19:53.065Z,1005.6
2023-03-17T07:20:53.082Z,1005.6
2023-03-17T07:21:53.062Z,1005.6
2023-03-17T07:22:53.052Z,1005.6
2023-03-17T07:23:53.057Z,1005.6
2023-03-17T07:24:53.078Z,1005.6
2023-03-17T07:25:53.060Z,1005.6
2023-03-17T07:26:53.063Z,1005.6
2023-03-17T07:27:53.051Z,1005.5
2023-03-17T07:28:53.067Z,1005.6
2023-03-17T07:29:53.055Z,1005.5
2023-03-17T07:30:53.103Z,1005.5
2023-03-17T07:31:53.139Z,1005.6
2023-03-17T07:32:53.149Z,1005.6
2023-03-17T07:33:53.063Z,1005.7
2023-03-17T07:34:53.096Z,1005.6
2023-03-17T07:35:53.248Z,1005.6
2023-03-17T07:36:53.054Z,1005.7
2023-03-17T07:37:53.057Z,1005.7
2023-03-17T07:38:53.062Z,1005.7
2023-03-17T07:39:53.075Z,1005.7
2023-03-17T07:40:53.203Z,1005.7
2023-03-17T07:41:53.210Z,1005.7
2023-03-17T07:42:53.057Z,1005.6
2023-03-17T07:43:53.070Z,1005.6
2023-03-17T07:44:53.090Z,1005.6
2023-03-17T07:45:53.117Z,1005.6
2023-03-17T07:46:53.088Z,1005.6
2023-03-17T07:47:53.087Z,1005.6
2023-03-17T07:48:53.065Z,1005.6
2023-03-17T07:49:53.059Z,1005.6
2023-03-17T07:50:53.107Z,1005.6
2023-03-17T07:51:53.063Z,1005.6
2023-03-17T07:52:53.060Z,1005.6
2023-03-17T07:53:53.093Z,1005.6
2023-03-17T07:54:53.083Z,1005.6
2023-03-17T07:55:53.063Z,1005.6
2023-03-17T07:56:53.060Z,1005.6
2023-03-17T07:57:53.282Z,1005.5
2023-03-17T07:58:53.082Z,1005.5
2023-03-17T07:59:53.097Z,1005.5
2023-03-17T08:01:53.202Z,1005.4
2023-03-17T08:03:07.080Z,1005.4
2023-03-17T08:03:53.221Z,1005.4
2023-03-17T08:04:53.063Z,1005.4
2023-03-17T08:06:53.110Z,1005.4
2023-03-17T08:07:53.067Z,1005.4
2023-03-17T08:08:53.083Z,1005.3
2023-03-17T08:09:53.074Z,1005.3
2023-03-17T08:10:53.065Z,1005.3
2023-03-17T08:11:53.083Z,1005.3
2023-03-17T08:12:53.066Z,1005.3
2023-03-17T08:13:53.088Z,1005.3
2023-03-17T08:14:53.068Z,1005.4
2023-03-17T08:15:53.098Z,1005.4
2023-03-17T08:16:53.137Z,1005.5
2023-03-17T08:17:53.067Z,1005.5
2023-03-17T08:18:53.083Z,1005.5
2023-03-17T08:19:53.064Z,1005.5
2023-03-17T08:20:53.126Z,1005.5
2023-03-17T08:21:53.064Z,1005.5
2023-03-17T08:22:53.109Z,1005.5
2023-03-17T08:23:53.075Z,1005.5
2023-03-17T08:24:53.135Z,1005.5
2023-03-17T08:25:53.068Z,1005.5
2023-03-17T08:26:53.086Z,1005.5
2023-03-17T08:27:53.083Z,1005.6
2023-03-17T08:28:53.089Z,1005.5
2023-03-17T08:29:53.145Z,1005.5
2023-03-17T08:30:53.245Z,1005.5
2023-03-17T08:31:53.131Z,1005.5
2023-03-17T08:32:53.120Z,1005.5
2023-03-17T08:33:53.077Z,1005.6
2023-03-17T08:34:53.071Z,1005.5
2023-03-17T08:35:53.130Z,1005.6
2023-03-17T08:36:53.085Z,1005.6
2023-03-17T08:37:56.058Z,1005.6
2023-03-17T08:38:53.076Z,1005.6
2023-03-17T08:39:53.083Z,1005.6
2023-03-17T08:40:53.075Z,1005.6
2023-03-17T08:41:53.079Z,1005.7
2023-03-17T08:42:53.076Z,1005.7
2023-03-17T08:43:53.137Z,1005.7
2023-03-17T08:45:53.140Z,1005.6
2023-03-17T08:46:53.110Z,1005.6
2023-03-17T08:47:53.079Z,1005.6
2023-03-17T08:48:53.082Z,1005.6
2023-03-17T08:49:53.093Z,1005.6
2023-03-17T08:50:53.085Z,1005.6
2023-03-17T08:51:53.087Z,1005.6
2023-03-17T08:52:53.086Z,1005.5
2023-03-17T08:53:53.090Z,1005.5
2023-03-17T08:54:53.096Z,1005.5
2023-03-17T08:55:53.096Z,1005.6
2023-03-17T08:56:53.086Z,1005.6
2023-03-17T08:57:53.089Z,1005.6
2023-03-17T08:58:53.112Z,1005.7
2023-03-17T08:59:53.108Z,1005.7
2023-03-17T09:00:53.089Z,1005.6
2023-03-17T09:01:53.191Z,1005.6
2023-03-17T09:02:53.121Z,1005.7
2023-03-17T09:03:53.123Z,1005.6
2023-03-17T09:04:53.124Z,1005.6
2023-03-17T09:05:53.087Z,1005.6
2023-03-17T09:07:02.662Z,1005.6
2023-03-17T09:07:53.144Z,1005.6
2023-03-17T09:08:53.084Z,1005.5
2023-03-17T09:09:53.089Z,1005.5
2023-03-17T09:10:53.106Z,1005.5
2023-03-17T09:11:53.094Z,1005.5
2023-03-17T09:12:53.091Z,1005.5
2023-03-17T09:13:53.091Z,1005.5
2023-03-17T09:14:53.100Z,1005.5
2023-03-17T09:15:53.137Z,1005.5
2023-03-17T09:16:53.100Z,1005.5
2023-03-17T09:17:53.141Z,1005.5
2023-03-17T09:18:53.095Z,1005.4
2023-03-17T09:19:53.091Z,1005.5
2023-03-17T09:20:53.094Z,1005.5
2023-03-17T09:21:53.100Z,1005.5
2023-03-17T09:22:53.097Z,1005.5
2023-03-17T09:23:53.112Z,1005.5
2023-03-17T09:24:53.109Z,1005.5
2023-03-17T09:25:53.092Z,1005.5
2023-03-17T09:26:53.092Z,1005.5
2023-03-17T09:27:53.113Z,1005.5
2023-03-17T09:28:53.100Z,1005.5
2023-03-17T09:29:53.098Z,1005.4
2023-03-17T09:30:53.158Z,1005.4
2023-03-17T09:31:53.103Z,1005.5
2023-03-17T09:32:53.295Z,1005.5
2023-03-17T09:33:53.094Z,1005.5
2023-03-17T09:34:53.103Z,1005.5
2023-03-17T09:35:53.214Z,1005.5
2023-03-17T09:36:53.100Z,1005.5
2023-03-17T09:37:53.145Z,1005.5
2023-03-17T09:38:53.101Z,1005.4
2023-03-17T09:39:53.112Z,1005.5
2023-03-17T09:40:53.101Z,1005.5
2023-03-17T09:41:53.112Z,1005.5
2023-03-17T09:42:53.205Z,1005.5
2023-03-17T09:43:53.102Z,1005.5
2023-03-17T09:44:53.109Z,1005.5
2023-03-17T09:45:53.119Z,1005.5
2023-03-17T09:46:53.158Z,1005.5
2023-03-17T09:47:53.105Z,1005.4
2023-03-17T09:48:53.142Z,1005.4
2023-03-17T09:49:53.108Z,1005.4
2023-03-17T09:50:53.103Z,1005.4
2023-03-17T09:51:53.107Z,1005.4
2023-03-17T09:52:53.125Z,1005.3
2023-03-17T09:53:53.118Z,1005.3
2023-03-17T09:54:53.117Z,1005.3
2023-03-17T09:55:53.110Z,1005.3
2023-03-17T09:56:53.108Z,1005.3
2023-03-17T09:57:53.112Z,1005.3
2023-03-17T09:58:53.107Z,1005.3
2023-03-17T09:59:53.115Z,1005.3
2023-03-17T10:00:53.139Z,1005.3
2023-03-17T10:01:53.167Z,1005.3
2023-03-17T10:02:53.110Z,1005.3
2023-03-17T10:03:53.105Z,1005.3
2023-03-17T10:04:53.183Z,1005.3
2023-03-17T10:05:53.251Z,1005.3
2023-03-17T10:06:53.117Z,1005.3
2023-03-17T10:07:53.135Z,1005.3
2023-03-17T10:08:53.115Z,1005.3
2023-03-17T10:09:53.122Z,1005.3
2023-03-17T10:10:53.134Z,1005.4
2023-03-17T10:11:53.112Z,1005.4
2023-03-17T10:12:53.122Z,1005.3
2023-03-17T10:13:53.129Z,1005.3
2023-03-17T10:14:53.124Z,1005.2
2023-03-17T10:15:53.136Z,1005.2
2023-03-17T10:16:53.123Z,1005.2
2023-03-17T10:17:53.135Z,1005.2
2023-03-17T10:18:53.116Z,1005.2
2023-03-17T10:19:53.141Z,1005.2
2023-03-17T10:20:53.121Z,1005.2
2023-03-17T10:21:53.126Z,1005.2
2023-03-17T10:22:53.133Z,1005.2
2023-03-17T10:23:53.125Z,1005.2
2023-03-17T10:24:53.232Z,1005.2
2023-03-17T10:25:53.137Z,1005.2
2023-03-17T10:26:53.146Z,1005.2
2023-03-17T10:27:53.124Z,1005.2
2023-03-17T10:28:53.139Z,1005.2
2023-03-17T10:29:53.133Z,1005.2
2023-03-17T10:30:53.118Z,1005.2
2023-03-17T10:31:53.208Z,1005.2
2023-03-17T10:32:53.161Z,1005.2
2023-03-17T10:33:53.126Z,1005.2
2023-03-17T10:34:53.131Z,1005.3
2023-03-17T10:35:53.198Z,1005.3
2023-03-17T10:36:53.184Z,1005.3
2023-03-17T10:38:04.395Z,1005.3
2023-03-17T10:38:53.132Z,1005.3
2023-03-17T10:39:53.128Z,1005.3
2023-03-17T10:40:53.128Z,1005.3
2023-03-17T10:41:53.132Z,1005.3
2023-03-17T10:42:53.138Z,1005.3
2023-03-17T10:43:53.147Z,1005.3
2023-03-17T10:44:53.129Z,1005.3
2023-03-17T10:45:53.122Z,1005.3
2023-03-17T10:46:53.271Z,1005.2
2023-03-17T10:47:53.128Z,1005.2
2023-03-17T10:48:53.157Z,1005.1
2023-03-17T10:49:53.129Z,1005.2
2023-03-17T10:50:54.404Z,1005.1
2023-03-17T10:51:53.128Z,1005.2
2023-03-17T10:53:53.146Z,1005.2
2023-03-17T10:54:53.140Z,1005.2
2023-03-17T10:55:53.135Z,1005.1
2023-03-17T10:56:53.133Z,1005.1
2023-03-17T10:57:53.137Z,1005.1
2023-03-17T10:58:53.153Z,1005
2023-03-17T10:59:53.192Z,1005
2023-03-17T11:00:53.150Z,1005.1
2023-03-17T11:01:53.133Z,1005
2023-03-17T11:02:53.158Z,1005
2023-03-17T11:03:53.198Z,1005.1
2023-03-17T11:04:53.144Z,1005.1
2023-03-17T11:05:53.137Z,1005
2023-03-17T11:06:53.147Z,1005
2023-03-17T11:07:53.165Z,1005
2023-03-17T11:08:53.145Z,1005
2023-03-17T11:09:53.147Z,1005
2023-03-17T11:10:53.139Z,1005
2023-03-17T11:11:53.141Z,1005
2023-03-17T11:12:53.161Z,1005
2023-03-17T11:13:53.144Z,1005
2023-03-17T11:14:53.153Z,1005
2023-03-17T11:15:53.145Z,1005
2023-03-17T11:16:53.145Z,1005
2023-03-17T11:17:53.163Z,1005.1
2023-03-17T11:18:53.146Z,1005.1
2023-03-17T11:19:53.142Z,1005
2023-03-17T11:20:53.145Z,1005
2023-03-17T11:21:53.201Z,1005
2023-03-17T11:22:53.177Z,1005
2023-03-17T11:23:53.154Z,1005
2023-03-17T11:24:53.315Z,1005
2023-03-17T11:25:53.162Z,1005
2023-03-17T11:26:53.152Z,1004.9
2023-03-17T11:27:53.169Z,1004.9
2023-03-17T11:28:53.152Z,1004.9
2023-03-17T11:29:53.190Z,1005
2023-03-17T11:30:53.158Z,1004.9
2023-03-17T11:31:53.262Z,1005
2023-03-17T11:32:53.213Z,1004.9
2023-03-17T11:33:53.163Z,1004.9
2023-03-17T11:34:53.160Z,1004.9
2023-03-17T11:35:53.302Z,1004.9
2023-03-17T11:36:55.158Z,1004.9
2023-03-17T11:37:53.174Z,1004.9
2023-03-17T11:38:53.171Z,1004.9
2023-03-17T11:39:53.160Z,1004.9
2023-03-17T11:40:53.171Z,1004.8
2023-03-17T11:41:53.157Z,1004.9
2023-03-17T11:42:54.355Z,1004.8
2023-03-17T11:43:53.172Z,1004.8
2023-03-17T11:44:53.167Z,1004.8
2023-03-17T11:45:53.228Z,1004.8
2023-03-17T11:46:53.168Z,1004.8
2023-03-17T11:47:53.161Z,1004.8
2023-03-17T11:48:53.167Z,1004.8
2023-03-17T11:49:53.163Z,1004.7
2023-03-17T11:50:53.182Z,1004.8
2023-03-17T11:51:53.161Z,1004.8
2023-03-17T11:52:53.216Z,1004.8
2023-03-17T11:53:53.181Z,1004.7
2023-03-17T11:54:54.395Z,1004.7
2023-03-17T11:55:53.168Z,1004.7
2023-03-17T11:56:53.161Z,1004.7
2023-03-17T11:57:53.166Z,1004.7
2023-03-17T11:58:53.175Z,1004.7
2023-03-17T11:59:53.173Z,1004.7
2023-03-17T12:00:53.164Z,1004.7
2023-03-17T12:01:53.169Z,1004.7
2023-03-17T12:02:53.166Z,1004.7
2023-03-17T12:03:53.365Z,1004.7
2023-03-17T12:04:53.183Z,1004.7
2023-03-17T12:05:53.167Z,1004.7
2023-03-17T12:06:53.403Z,1004.7
2023-03-17T12:07:53.166Z,1004.7
2023-03-17T12:08:53.198Z,1004.7
2023-03-17T12:10:53.169Z,1004.7
2023-03-17T12:11:53.172Z,1004.7
2023-03-17T12:12:53.195Z,1004.7
2023-03-17T12:13:53.173Z,1004.7
2023-03-17T12:14:53.186Z,1004.7
2023-03-17T12:15:53.310Z,1004.7
2023-03-17T12:16:53.175Z,1004.7
2023-03-17T12:17:53.190Z,1004.6
2023-03-17T12:18:53.181Z,1004.6
2023-03-17T12:19:53.183Z,1004.6
2023-03-17T12:20:53.204Z,1004.6
2023-03-17T12:21:53.197Z,1004.5
2023-03-17T12:22:53.998Z,1004.6
2023-03-17T12:23:53.207Z,1004.6
2023-03-17T12:24:53.176Z,1004.6
2023-03-17T12:25:53.176Z,1004.5
2023-03-17T12:26:53.175Z,1004.5
2023-03-17T12:27:53.183Z,1004.5
2023-03-17T12:28:53.592Z,1004.5
2023-03-17T12:29:53.182Z,1004.4
2023-03-17T12:31:53.181Z,1004.4
2023-03-17T12:32:53.254Z,1004.4
2023-03-17T12:33:53.185Z,1004.4
2023-03-17T12:34:53.909Z,1004.4
2023-03-17T12:35:53.189Z,1004.5
2023-03-17T12:36:53.180Z,1004.4
2023-03-17T12:37:53.184Z,1004.5
2023-03-17T12:38:53.191Z,1004.4
2023-03-17T12:39:53.184Z,1004.4
2023-03-17T12:40:53.184Z,1004.5
2023-03-17T12:41:53.190Z,1004.5
2023-03-17T12:42:53.191Z,1004.4
2023-03-17T12:43:53.188Z,1004.5
2023-03-17T12:44:53.191Z,1004.4
2023-03-17T12:45:54.245Z,1004.4
2023-03-17T12:46:53.189Z,1004.4
2023-03-17T12:47:53.190Z,1004.4
2023-03-17T12:48:53.215Z,1004.3
2023-03-17T12:49:53.185Z,1004.3
2023-03-17T12:50:53.196Z,1004.3
2023-03-17T12:52:53.228Z,1004.2
2023-03-17T12:53:53.193Z,1004.2
2023-03-17T12:54:53.218Z,1004.2